Time;durP1;ratioP1;P1;durP2;ratioP2;P2;SDS_P1;SDS_P2;PMS_P1;PMS_P2;Temp;Humidity;BMP_temperature;BMP_pressure;BME280_temperature;BME280_humidity;BME280_pressure;Samples;Min_cycle;Max_cycle;Signal;HPM_P1;HPM_P2
2022/04/30 00:02:34;;;;;;;24.88;11.98;;;;;;;12.93;70.57;100469.38;12214248;19;20509;-79
2022/04/30 00:06:36;;;;;;;23.70;11.45;;;;;;;12.85;71.24;100468.94;12202039;19;20006;-80
2022/04/30 00:10:38;;;;;;;32.63;13.10;;;;;;;12.75;72.35;100481.50;12191133;19;20476;-80
2022/04/30 00:14:42;;;;;;;22.70;12.95;;;;;;;12.56;74.38;100468.97;12218086;19;20501;-80
2022/04/30 00:18:46;;;;;;;19.42;11.80;;;;;;;12.38;76.06;100478.28;12220705;19;20006;-80
2022/04/30 00:22:51;;;;;;;23.35;12.13;;;;;;;12.22;77.51;100468.00;12208210;19;20128;-80
2022/04/30 00:31:15;;;;;;;25.52;13.07;;;;;;;11.90;82.84;100462.06;12208752;19;20005;-83
2022/04/30 00:35:17;;;;;;;25.63;13.00;;;;;;;11.74;81.75;100458.09;12212061;19;20496;-82
2022/04/30 00:39:19;;;;;;;30.05;13.07;;;;;;;11.68;82.37;100456.31;12220593;19;20006;-82
2022/04/30 00:43:22;;;;;;;29.98;13.00;;;;;;;11.59;83.14;100451.16;12195535;19;20011;-82
2022/04/30 00:47:26;;;;;;;25.88;12.73;;;;;;;11.56;82.35;100459.06;12204830;19;20050;-83
2022/04/30 00:51:28;;;;;;;24.60;12.40;;;;;;;11.54;83.45;100459.34;12209625;19;20011;-82
2022/04/30 00:55:32;;;;;;;25.40;11.95;;;;;;;11.50;81.81;100462.78;12188384;19;20121;-83
2022/04/30 00:59:43;;;;;;;21.45;12.52;;;;;;;11.41;83.40;100462.31;12200394;19;20027;-83
2022/04/30 01:03:52;;;;;;;28.90;14.18;;;;;;;11.29;85.97;100455.94;12197288;19;20007;-87
2022/04/30 01:12:43;;;;;;;31.40;13.30;;;;;;;11.09;86.50;100462.63;12216058;19;20062;-84
2022/04/30 01:16:46;;;;;;;25.70;12.65;;;;;;;11.02;87.07;100467.44;12185724;19;20006;-84
2022/04/30 01:20:54;;;;;;;25.70;12.30;;;;;;;10.89;90.03;100464.91;12202703;19;20030;-84
2022/04/30 01:24:59;;;;;;;27.48;12.77;;;;;;;10.92;91.21;100462.50;12208877;19;20018;-84
2022/04/30 01:29:00;;;;;;;25.40;12.88;;;;;;;10.86;91.71;100463.44;12211475;19;20492;-86
2022/04/30 01:37:25;;;;;;;27.13;13.30;;;;;;;10.59;90.82;100459.38;12192946;19;20006;-86
2022/04/30 01:41:27;;;;;;;31.13;15.05;;;;;;;10.44;92.36;100452.41;12213746;19;20042;-85
2022/04/30 01:45:29;;;;;;;26.65;13.30;;;;;;;10.37;94.29;100454.41;12208976;19;19999;-87
2022/04/30 01:49:31;;;;;;;28.98;13.55;;;;;;;10.27;96.13;100451.38;12191355;19;20007;-84
2022/04/30 01:53:34;;;;;;;25.95;14.77;;;;;;;10.22;96.56;100454.78;12208725;19;20011;-82
2022/04/30 01:57:41;;;;;;;28.85;14.32;;;;;;;10.02;100.00;100444.03;12211008;19;20007;-81
2022/04/30 02:01:43;;;;;;;31.00;14.85;;;;;;;9.97;100.00;100443.88;12181417;19;20014;-82
2022/04/30 02:05:45;;;;;;;30.50;15.15;;;;;;;10.01;100.00;100445.09;12208512;19;20480;-83
2022/04/30 02:09:51;;;;;;;32.75;15.50;;;;;;;9.96;100.00;100431.16;12203106;19;20010;-83
2022/04/30 02:13:56;;;;;;;32.75;15.25;;;;;;;9.95;100.00;100434.16;12179110;19;20031;-83
2022/04/30 02:18:00;;;;;;;29.58;13.65;;;;;;;9.91;100.00;100430.19;12206486;19;20073;-81
2022/04/30 02:22:02;;;;;;;31.92;15.77;;;;;;;9.92;100.00;100426.34;12187698;19;20007;-80
2022/04/30 02:26:04;;;;;;;31.08;14.85;;;;;;;9.86;100.00;100430.88;12207446;19;20014;-81
2022/04/30 02:30:08;;;;;;;34.22;16.13;;;;;;;9.84;100.00;100416.50;12208009;19;20011;-81
2022/04/30 02:34:10;;;;;;;32.42;16.48;;;;;;;9.84;100.00;100416.50;12192166;19;20011;-83
2022/04/30 02:38:12;;;;;;;36.60;16.73;;;;;;;9.82;100.00;100415.91;12208443;19;20022;-80
2022/04/30 02:42:14;;;;;;;24.63;14.27;;;;;;;9.84;100.00;100413.72;12199911;19;20763;-81
2022/04/30 02:46:17;;;;;;;30.83;14.88;;;;;;;9.72;100.00;100410.06;12188203;19;20023;-80
2022/04/30 02:50:23;;;;;;;37.70;16.55;;;;;;;9.63;100.00;100398.53;12207963;19;20855;-84
2022/04/30 02:54:25;;;;;;;33.00;16.35;;;;;;;9.59;100.00;100403.66;12201426;19;20472;-82
2022/04/30 03:02:47;;;;;;;33.72;16.92;;;;;;;9.62;100.00;100398.78;12209195;19;20090;-83
2022/04/30 03:06:49;;;;;;;35.45;17.35;;;;;;;9.58;100.00;100396.47;12188810;19;20010;-83
2022/04/30 03:10:56;;;;;;;40.60;18.27;;;;;;;9.62;100.00;100394.09;12206404;19;20717;-83
2022/04/30 03:14:57;;;;;;;40.65;17.90;;;;;;;9.63;100.00;100390.28;12203979;19;20014;-82
2022/04/30 03:23:20;;;;;;;35.78;18.27;;;;;;;9.60;100.00;100385.22;12203959;19;20023;-84
2022/04/30 03:27:22;;;;;;;35.63;16.20;;;;;;;9.61;100.00;100383.31;12203421;19;20015;-81
2022/04/30 03:31:24;;;;;;;39.17;18.20;;;;;;;9.57;100.00;100386.53;12169838;19;20070;-81
2022/04/30 03:35:25;;;;;;;33.20;17.60;;;;;;;9.55;100.00;100388.69;12207771;19;20007;-84
2022/04/30 03:39:28;;;;;;;35.57;18.43;;;;;;;9.57;100.00;100383.78;12201055;19;20007;-83
2022/04/30 03:43:31;;;;;;;30.00;16.20;;;;;;;9.60;100.00;100385.22;12186698;19;20007;-83
2022/04/30 03:47:33;;;;;;;35.50;17.92;;;;;;;9.57;100.00;100391.19;12202276;19;20622;-81
2022/04/30 03:51:35;;;;;;;37.08;17.23;;;;;;;9.49;100.00;100383.28;12210008;19;20022;-80
2022/04/30 03:55:36;;;;;;;35.15;18.17;;;;;;;9.41;100.00;100383.56;12194731;19;20011;-81
2022/04/30 03:59:38;;;;;;;34.45;19.30;;;;;;;9.42;100.00;100388.81;12218583;19;20476;-82
2022/04/30 04:03:42;;;;;;;40.88;19.88;;;;;;;9.42;100.00;100383.31;12217533;19;20017;-81
2022/04/30 04:07:44;;;;;;;36.58;19.27;;;;;;;9.44;100.00;100383.09;12198240;19;20040;-82
2022/04/30 04:11:46;;;;;;;39.90;20.13;;;;;;;9.46;100.00;100379.06;12216854;19;20531;-80
2022/04/30 04:20:11;;;;;;;41.33;20.88;;;;;;;9.38;100.00;100365.59;12205798;19;20829;-81
2022/04/30 04:28:33;;;;;;;37.97;19.30;;;;;;;9.34;100.00;100364.38;12191511;19;20640;-81
2022/04/30 04:32:34;;;;;;;39.00;19.08;;;;;;;9.31;100.00;100370.31;12214962;19;20011;-81
2022/04/30 04:36:37;;;;;;;41.65;20.27;;;;;;;9.32;100.00;100372.00;12210745;19;20010;-82
2022/04/30 04:40:38;;;;;;;40.80;19.27;;;;;;;9.30;100.00;100376.91;12198322;19;20011;-81
2022/04/30 04:44:40;;;;;;;46.00;21.20;;;;;;;9.30;100.00;100385.16;12209207;19;20329;-82
2022/04/30 04:48:42;;;;;;;40.17;19.80;;;;;;;9.28;100.00;100384.53;12218732;19;20066;-82
2022/04/30 04:52:45;;;;;;;37.17;19.38;;;;;;;9.28;100.00;100388.13;12189811;19;20095;-83
2022/04/30 04:56:46;;;;;;;40.00;20.27;;;;;;;9.32;100.00;100394.84;12207879;19;20392;-83
2022/04/30 05:00:49;;;;;;;42.97;21.88;;;;;;;9.34;100.00;100397.41;12203761;19;20255;-82
2022/04/30 05:04:50;;;;;;;44.72;20.73;;;;;;;9.30;100.00;100396.97;12201828;19;20010;-80
2022/04/30 05:08:52;;;;;;;44.38;19.70;;;;;;;9.32;100.00;100396.78;12213938;19;20150;-79
2022/04/30 05:12:57;;;;;;;33.92;17.33;;;;;;;9.26;100.00;100390.25;12182964;19;20002;-81
2022/04/30 05:16:59;;;;;;;33.42;17.42;;;;;;;9.24;100.00;100397.88;12206590;19;20387;-78
2022/04/30 05:21:05;;;;;;;35.42;18.42;;;;;;;9.20;100.00;100402.19;12212195;19;20027;-84
2022/04/30 05:25:07;;;;;;;42.45;21.27;;;;;;;9.26;100.00;100405.94;12184840;19;20010;-82
2022/04/30 05:29:09;;;;;;;40.20;20.63;;;;;;;9.33;100.00;100412.19;12207057;19;20031;-80
2022/04/30 05:33:11;;;;;;;33.03;18.88;;;;;;;9.27;100.00;100413.94;12212152;19;22031;-81
2022/04/30 05:37:13;;;;;;;39.15;19.42;;;;;;;9.27;100.00;100415.84;12176250;19;20014;-82
2022/04/30 05:41:14;;;;;;;34.53;19.13;;;;;;;9.29;100.00;100416.47;12216014;19;20011;-83
2022/04/30 05:45:16;;;;;;;40.38;21.75;;;;;;;9.35;100.00;100423.81;12198251;19;20075;-81
2022/04/30 05:49:17;;;;;;;36.65;18.73;;;;;;;9.38;100.00;100423.38;12188499;19;20010;-82
2022/04/30 05:53:19;;;;;;;43.45;22.42;;;;;;;9.43;100.00;100423.53;12207438;19;20007;-81
2022/04/30 05:57:25;;;;;;;38.95;20.38;;;;;;;9.44;100.00;100433.47;12201005;19;20040;-82
2022/04/30 06:01:27;;;;;;;35.60;18.73;;;;;;;9.43;100.00;100433.66;12182025;19;20043;-82
2022/04/30 06:05:29;;;;;;;38.03;19.10;;;;;;;9.50;100.00;100439.97;12198453;19;20102;-83
2022/04/30 06:09:31;;;;;;;41.88;21.27;;;;;;;9.51;100.00;100447.97;12212554;19;20489;-81
2022/04/30 06:13:34;;;;;;;38.97;21.00;;;;;;;9.47;100.00;100441.25;12180988;19;20052;-83
2022/04/30 06:17:37;;;;;;;40.53;19.70;;;;;;;9.38;100.00;100448.13;12208842;19;20003;-82
2022/04/30 06:21:40;;;;;;;35.00;20.35;;;;;;;9.43;100.00;100447.41;12204626;19;20015;-83
2022/04/30 06:25:43;;;;;;;34.30;14.40;;;;;;;9.47;100.00;100446.75;12182767;19;20386;-81
2022/04/30 06:29:44;;;;;;;33.20;18.50;;;;;;;9.46;100.00;100447.84;12187793;19;20689;-79
2022/04/30 06:33:47;;;;;;;45.05;20.20;;;;;;;9.42;100.00;100446.59;12190309;19;20018;-78
2022/04/30 06:37:48;;;;;;;39.72;19.55;;;;;;;9.39;100.00;100444.28;12179282;19;20010;-79
2022/04/30 06:41:50;;;;;;;38.72;20.50;;;;;;;9.42;100.00;100457.59;12214594;19;20015;-80
2022/04/30 06:45:53;;;;;;;32.53;18.30;;;;;;;9.29;100.00;100461.31;12164749;19;20035;-78
2022/04/30 06:49:55;;;;;;;31.98;17.77;;;;;;;9.37;100.00;100468.44;12208368;19;20028;-79
2022/04/30 06:58:22;;;;;;;36.10;18.85;;;;;;;9.39;100.00;100471.78;12181327;19;20406;-80
2022/04/30 07:02:27;;;;;;;35.30;16.95;;;;;;;9.34;100.00;100469.75;12200974;19;20410;-78
2022/04/30 07:06:29;;;;;;;39.72;19.83;;;;;;;9.33;100.00;100478.19;12213583;19;20031;-77
2022/04/30 07:10:31;;;;;;;33.50;16.85;;;;;;;9.37;100.00;100482.19;12194607;19;20109;-78
2022/04/30 07:14:36;;;;;;;38.13;17.63;;;;;;;9.50;100.00;100479.31;12205207;19;20035;-80
2022/04/30 07:18:38;;;;;;;53.45;17.20;;;;;;;9.54;100.00;100480.53;12195548;19;20024;-78
2022/04/30 07:22:39;;;;;;;38.05;18.13;;;;;;;9.54;100.00;100477.78;12187306;19;20006;-78
2022/04/30 07:26:41;;;;;;;26.25;14.48;;;;;;;9.58;100.00;100481.78;12214925;19;20031;-77
2022/04/30 07:30:42;;;;;;;28.73;15.63;;;;;;;9.38;100.00;100491.28;12209528;19;20062;-79
2022/04/30 07:34:44;;;;;;;31.33;15.52;;;;;;;9.42;100.00;100481.50;12205151;19;20079;-81
2022/04/30 07:38:47;;;;;;;27.08;14.05;;;;;;;9.62;100.00;100486.81;12237401;19;20006;-79
2022/04/30 07:42:48;;;;;;;26.70;15.23;;;;;;;9.39;100.00;100490.22;12227820;19;20013;-78
2022/04/30 07:46:50;;;;;;;26.20;14.68;;;;;;;9.57;100.00;100491.09;12213612;19;20068;-79
2022/04/30 07:50:57;;;;;;;27.08;14.98;;;;;;;9.84;100.00;100493.56;12224592;19;20018;-78
2022/04/30 07:55:02;;;;;;;27.67;15.75;;;;;;;9.96;100.00;100496.41;12198404;19;20014;-79
2022/04/30 07:59:04;;;;;;;27.92;14.48;;;;;;;10.14;100.00;100501.06;12225909;19;20017;-78
2022/04/30 08:03:06;;;;;;;24.27;14.00;;;;;;;10.19;100.00;100504.81;12230646;19;20318;-80
2022/04/30 08:07:07;;;;;;;21.77;13.80;;;;;;;10.15;100.00;100508.28;12220433;19;20027;-80
2022/04/30 08:11:10;;;;;;;26.73;14.85;;;;;;;10.17;100.00;100518.00;12237675;19;20374;-78
2022/04/30 08:15:12;;;;;;;26.02;15.32;;;;;;;10.19;100.00;100515.81;12223787;19;20019;-79
2022/04/30 08:19:15;;;;;;;23.83;13.68;;;;;;;10.15;100.00;100513.78;12194812;19;20092;-81
2022/04/30 08:23:22;;;;;;;25.85;13.27;;;;;;;10.08;100.00;100521.25;12210855;19;19998;-79
2022/04/30 08:27:24;;;;;;;25.13;14.13;;;;;;;10.08;100.00;100513.00;12206611;19;20477;-81
2022/04/30 08:31:26;;;;;;;24.27;13.65;;;;;;;9.81;100.00;100508.66;12193689;19;20003;-77
2022/04/30 08:35:28;;;;;;;22.30;13.73;;;;;;;9.66;100.00;100512.81;12212929;19;20030;-78
2022/04/30 08:39:46;;;;;;;23.75;14.43;;;;;;;9.61;100.00;100510.75;12213321;19;20042;-77
2022/04/30 08:43:48;;;;;;;26.15;14.27;;;;;;;9.63;100.00;100516.00;12188740;19;20025;-79
2022/04/30 08:47:52;;;;;;;21.27;11.63;;;;;;;9.83;100.00;100511.16;12205466;19;20126;-79
2022/04/30 08:51:54;;;;;;;24.88;13.98;;;;;;;9.87;100.00;100517.88;12195057;19;20816;-78
2022/04/30 08:55:56;;;;;;;20.92;12.52;;;;;;;10.13;100.00;100515.91;12200281;19;20027;-80
2022/04/30 08:59:59;;;;;;;20.00;12.00;;;;;;;10.25;100.00;100525.91;12193782;19;20028;-79
2022/04/30 09:04:01;;;;;;;26.67;13.60;;;;;;;10.39;100.00;100518.38;12183817;19;20014;-81
2022/04/30 09:08:04;;;;;;;22.45;12.63;;;;;;;10.53;100.00;100526.47;12211494;19;20416;-81
2022/04/30 09:12:07;;;;;;;23.77;14.10;;;;;;;10.64;100.00;100517.41;12219266;19;20461;-82
2022/04/30 09:16:22;;;;;;;19.77;12.82;;;;;;;10.59;100.00;100523.63;12190899;19;20189;-80
2022/04/30 09:20:24;;;;;;;22.67;13.27;;;;;;;10.59;100.00;100520.00;12209112;19;20027;-80
2022/04/30 09:24:26;;;;;;;22.25;13.18;;;;;;;10.64;100.00;100517.41;12201814;19;20370;-80
2022/04/30 09:28:36;;;;;;;20.83;12.75;;;;;;;10.42;100.00;100519.84;12183736;19;20006;-80
2022/04/30 09:32:37;;;;;;;21.50;12.95;;;;;;;10.18;100.00;100516.91;12208659;19;20007;-79
2022/04/30 09:41:08;;;;;;;21.80;12.80;;;;;;;10.10;100.00;100519.13;12190419;19;20126;-80
2022/04/30 09:45:27;;;;;;;18.85;12.02;;;;;;;10.01;100.00;100519.41;12205208;19;20015;-79
2022/04/30 09:54:02;;;;;;;17.50;11.02;;;;;;;9.93;100.00;100518.88;12206249;19;20007;-79
2022/04/30 09:58:04;;;;;;;18.75;11.27;;;;;;;9.86;100.00;100520.88;12183688;19;20010;-79
2022/04/30 10:02:08;;;;;;;15.77;9.13;;;;;;;9.63;100.00;100530.59;12202379;19;20023;-79
2022/04/30 10:06:10;;;;;;;14.23;8.77;;;;;;;9.37;100.00;100523.47;12203338;19;20342;-78
2022/04/30 10:10:16;;;;;;;15.65;9.50;;;;;;;9.45;100.00;100525.91;12181104;19;20090;-78
2022/04/30 10:14:38;;;;;;;17.02;10.18;;;;;;;9.57;100.00;100518.59;12202582;19;20454;-80
2022/04/30 10:18:43;;;;;;;13.25;7.97;;;;;;;9.66;100.00;100516.41;12199976;19;20006;-77
2022/04/30 10:22:54;;;;;;;14.27;9.35;;;;;;;9.66;100.00;100524.66;12184278;19;20021;-77
2022/04/30 10:26:59;;;;;;;14.85;9.00;;;;;;;9.64;100.00;100523.19;12201899;19;20018;-77
2022/04/30 10:31:02;;;;;;;10.93;8.07;;;;;;;9.92;100.00;100525.47;12179186;19;20010;-78
2022/04/30 10:35:05;;;;;;;12.95;7.88;;;;;;;10.05;100.00;100533.56;12198982;19;20010;-78
2022/04/30 10:39:17;;;;;;;17.30;9.65;;;;;;;10.11;100.00;100529.06;12203908;19;20010;-77
2022/04/30 10:43:31;;;;;;;14.95;8.52;;;;;;;10.35;100.00;100530.06;12184217;19;20003;-78
2022/04/30 10:47:33;;;;;;;15.70;8.70;;;;;;;10.39;100.00;100518.38;12184850;19;20027;-79
2022/04/30 10:51:42;;;;;;;15.88;8.63;;;;;;;10.58;100.00;100521.09;12199733;19;20010;-77
2022/04/30 10:55:45;;;;;;;13.70;7.45;;;;;;;11.00;100.00;100516.44;12180043;19;20011;-80
2022/04/30 11:00:01;;;;;;;13.68;8.98;;;;;;;10.95;99.20;100517.19;12192007;19;20022;-80
2022/04/30 11:04:03;;;;;;;16.00;10.85;;;;;;;10.76;100.00;100507.28;12189582;19;20043;-77
2022/04/30 11:08:05;;;;;;;14.05;8.63;;;;;;;10.79;100.00;100504.03;12216000;19;20011;-79
2022/04/30 11:12:07;;;;;;;14.55;9.07;;;;;;;10.97;98.00;100502.31;12213885;19;20373;-80
2022/04/30 11:16:14;;;;;;;14.98;8.95;;;;;;;10.85;100.00;100505.03;12185682;19;20421;-79
2022/04/30 11:20:24;;;;;;;16.55;9.75;;;;;;;10.93;100.00;100500.00;12215332;19;19998;-80
2022/04/30 11:24:30;;;;;;;14.73;9.20;;;;;;;10.92;100.00;100490.06;12215379;19;20650;-78
2022/04/30 11:28:32;;;;;;;16.92;11.48;;;;;;;10.81;98.58;100482.59;12194153;19;20011;-78
2022/04/30 11:32:33;;;;;;;17.55;9.60;;;;;;;10.63;99.10;100483.50;12206626;19;20017;-82
2022/04/30 11:36:44;;;;;;;17.83;11.02;;;;;;;10.50;100.00;100483.69;12204670;19;20555;-80
2022/04/30 11:40:47;;;;;;;20.83;10.57;;;;;;;10.80;100.00;100483.69;12199696;19;20712;-79
2022/04/30 11:44:52;;;;;;;15.07;8.63;;;;;;;11.02;96.96;100489.50;12218825;19;20085;-79
2022/04/30 11:48:54;;;;;;;17.63;10.93;;;;;;;10.93;96.57;100491.75;12189599;19;20027;-80
2022/04/30 11:52:57;;;;;;;22.02;9.82;;;;;;;11.14;98.02;100495.03;12209646;19;20143;-79
2022/04/30 11:56:59;;;;;;;17.27;10.52;;;;;;;11.28;97.93;100490.16;12213258;19;20074;-79
2022/04/30 12:01:00;;;;;;;17.40;9.98;;;;;;;11.38;98.21;100496.75;12181805;19;20091;-79
2022/04/30 12:05:04;;;;;;;15.40;9.50;;;;;;;11.45;96.69;100501.31;12206339;19;20063;-81
2022/04/30 12:09:17;;;;;;;16.80;10.95;;;;;;;11.29;95.85;100489.06;12216273;19;20074;-79
2022/04/30 12:13:23;;;;;;;17.13;10.50;;;;;;;11.40;97.49;100499.28;12186356;19;20090;-80
2022/04/30 12:17:31;;;;;;;17.92;10.15;;;;;;;11.83;94.84;100490.63;12218014;19;20011;-79
2022/04/30 12:26:07;;;;;;;17.27;10.38;;;;;;;12.67;87.91;100483.81;12188759;19;20003;-80
2022/04/30 12:30:15;;;;;;;16.42;9.90;;;;;;;12.51;90.26;100480.75;12208190;19;20024;-80
2022/04/30 12:34:22;;;;;;;15.65;10.30;;;;;;;12.68;87.66;100480.81;12187495;19;20014;-80
2022/04/30 12:38:24;;;;;;;18.23;11.15;;;;;;;12.27;86.86;100471.72;12214580;19;20006;-80
2022/04/30 12:42:27;;;;;;;16.85;9.77;;;;;;;12.40;86.99;100466.97;12203884;19;20032;-81
2022/04/30 12:46:28;;;;;;;16.20;10.57;;;;;;;12.25;87.58;100475.78;12188504;19;20523;-80
2022/04/30 12:50:32;;;;;;;16.55;10.55;;;;;;;12.14;89.57;100465.66;12209422;19;20040;-83
2022/04/30 12:54:34;;;;;;;16.80;9.93;;;;;;;12.11;86.87;100466.13;12205568;19;20097;-81
2022/04/30 12:58:37;;;;;;;18.60;9.70;;;;;;;11.94;88.13;100457.75;12183737;19;20023;-81
2022/04/30 13:02:40;;;;;;;13.52;9.38;;;;;;;11.90;88.63;100456.53;12202969;19;20023;-81
2022/04/30 13:06:41;;;;;;;17.48;11.15;;;;;;;11.74;88.63;100458.94;12200420;19;20007;-81
2022/04/30 13:15:04;;;;;;;17.58;10.10;;;;;;;11.77;90.51;100446.56;12205514;19;20010;-81
2022/04/30 13:19:05;;;;;;;13.50;9.53;;;;;;;11.86;89.59;100443.22;12178025;19;20031;-81
2022/04/30 13:23:07;;;;;;;18.83;10.45;;;;;;;11.90;89.84;100451.88;12206620;19;20015;-81
2022/04/30 13:27:09;;;;;;;17.65;11.43;;;;;;;11.95;90.52;100440.91;12200899;19;20015;-80
2022/04/30 13:31:10;;;;;;;15.07;9.73;;;;;;;12.39;86.50;100440.44;12175383;19;20382;-80
2022/04/30 13:35:13;;;;;;;17.98;10.23;;;;;;;12.61;87.54;100438.66;12197367;19;20011;-81
2022/04/30 13:39:14;;;;;;;17.88;10.63;;;;;;;12.92;85.80;100436.44;12195408;19;20022;-80
2022/04/30 13:43:16;;;;;;;14.07;9.88;;;;;;;13.06;83.68;100436.94;12187777;19;20010;-79
2022/04/30 13:47:19;;;;;;;16.85;10.30;;;;;;;12.90;82.92;100441.38;12195322;19;20017;-80
2022/04/30 13:51:21;;;;;;;13.93;8.93;;;;;;;12.85;82.38;100438.50;12196403;19;20003;-80
2022/04/30 13:55:23;;;;;;;19.10;9.85;;;;;;;12.58;83.78;100438.31;12176090;19;20026;-80
2022/04/30 13:59:33;;;;;;;17.25;10.95;;;;;;;12.37;85.38;100437.06;12195832;19;20077;-79
2022/04/30 14:03:35;;;;;;;16.20;10.07;;;;;;;12.60;83.48;100431.44;12206771;19;20007;-79
2022/04/30 14:07:37;;;;;;;18.83;11.38;;;;;;;12.71;80.87;100430.53;12180113;19;20035;-79
2022/04/30 14:11:39;;;;;;;18.13;10.57;;;;;;;12.93;81.04;100421.50;12200944;19;20014;-79
2022/04/30 14:15:42;;;;;;;18.75;9.85;;;;;;;13.22;82.31;100420.34;12192005;19;20011;-80
2022/04/30 14:19:43;;;;;;;15.65;9.18;;;;;;;13.56;77.75;100422.25;12172104;19;20016;-80
2022/04/30 14:23:47;;;;;;;19.58;10.77;;;;;;;13.39;79.00;100419.53;12197142;19;20032;-80
2022/04/30 14:27:48;;;;;;;15.80;9.75;;;;;;;13.10;79.25;100425.13;12187559;19;20017;-80
2022/04/30 14:31:53;;;;;;;15.93;10.88;;;;;;;12.99;79.17;100417.75;12186242;19;20508;-80
2022/04/30 14:35:55;;;;;;;15.82;10.82;;;;;;;12.94;80.16;100423.22;12192525;19;20023;-81
2022/04/30 14:39:57;;;;;;;15.52;10.00;;;;;;;12.91;79.62;100419.00;12176553;19;20015;-81
2022/04/30 14:43:59;;;;;;;18.08;10.43;;;;;;;12.73;79.51;100420.09;12198622;19;20394;-80
2022/04/30 14:48:01;;;;;;;13.65;10.00;;;;;;;12.64;80.18;100423.47;12198183;19;20524;-81
2022/04/30 14:52:03;;;;;;;17.53;10.57;;;;;;;12.58;80.22;100422.53;12171998;19;20023;-81
2022/04/30 14:56:05;;;;;;;18.13;10.90;;;;;;;12.46;80.67;100414.34;12194703;19;20023;-81
2022/04/30 15:00:07;;;;;;;19.45;10.95;;;;;;;12.47;80.02;100418.78;12190577;19;20010;-81
2022/04/30 15:04:09;;;;;;;19.90;10.57;;;;;;;12.41;81.01;100418.94;12169798;19;20071;-81
2022/04/30 15:08:11;;;;;;;18.70;10.57;;;;;;;12.35;79.93;100411.63;12198950;19;20502;-80
2022/04/30 15:12:12;;;;;;;18.23;11.25;;;;;;;12.28;80.92;100407.09;12200424;19;20022;-81
2022/04/30 15:16:14;;;;;;;19.23;11.23;;;;;;;12.18;82.90;100406.03;12176792;19;20035;-81
2022/04/30 15:20:16;;;;;;;21.00;11.65;;;;;;;12.06;83.00;100401.38;12201165;19;20373;-80
2022/04/30 15:24:22;;;;;;;19.25;11.38;;;;;;;12.08;82.35;100395.63;12197172;19;20006;-82
2022/04/30 15:28:24;;;;;;;19.73;10.85;;;;;;;12.08;82.77;100401.16;12173101;19;20010;-81
2022/04/30 15:32:28;;;;;;;19.60;10.85;;;;;;;12.18;81.29;100406.88;12188466;19;20014;-81
2022/04/30 15:36:33;;;;;;;19.15;11.82;;;;;;;12.16;82.25;100403.50;12189241;19;20682;-80
2022/04/30 15:40:35;;;;;;;17.27;11.32;;;;;;;12.15;81.95;100399.06;12181852;19;20055;-80
2022/04/30 15:44:36;;;;;;;19.48;10.73;;;;;;;12.03;82.33;100404.63;12197572;19;20006;-80
2022/04/30 15:52:58;;;;;;;15.98;11.00;;;;;;;11.90;81.32;100401.31;12180793;19;20019;-82
2022/04/30 15:57:01;;;;;;;17.55;10.40;;;;;;;12.02;81.40;100396.63;12197626;19;20070;-81
2022/04/30 16:01:03;;;;;;;;;;;;;;;12.17;80.32;100401.59;12183782;19;20577;-82
2022/04/30 16:05:05;;;;;;;20.20;10.70;;;;;;;12.37;80.02;100392.84;12206265;19;19974;-81
2022/04/30 16:09:07;;;;;;;18.20;11.45;;;;;;;12.48;80.79;100397.50;12208369;19;20420;-82
2022/04/30 16:13:08;;;;;;;16.50;10.65;;;;;;;12.53;79.22;100401.19;12189408;19;20130;-81
2022/04/30 16:17:10;;;;;;;21.70;11.63;;;;;;;12.49;79.49;100397.25;12207204;19;20044;-82
2022/04/30 16:21:12;;;;;;;18.27;10.97;;;;;;;12.59;80.87;100391.06;12209180;19;20019;-83
2022/04/30 16:25:14;;;;;;;20.42;10.95;;;;;;;12.65;80.02;100381.78;12177102;19;20114;-81
2022/04/30 16:29:16;;;;;;;19.58;10.27;;;;;;;12.64;79.30;100382.00;12206241;19;20045;-82
2022/04/30 16:33:18;;;;;;;22.77;11.20;;;;;;;12.52;80.30;100379.31;12206943;19;20457;-81
2022/04/30 16:37:20;;;;;;;16.20;9.77;;;;;;;12.48;80.56;100383.66;12184708;19;20027;-82
2022/04/30 16:41:22;;;;;;;21.67;10.02;;;;;;;12.58;80.00;100378.31;12210028;19;20504;-81
2022/04/30 16:45:26;;;;;;;16.77;9.90;;;;;;;12.51;79.21;100375.72;12202794;19;20334;-82
2022/04/30 16:49:29;;;;;;;16.52;9.68;;;;;;;12.66;78.35;100377.91;12191835;19;20023;-81
2022/04/30 16:53:32;;;;;;;16.23;9.68;;;;;;;12.64;78.55;100377.34;12199068;19;20014;-81
2022/04/30 16:57:35;;;;;;;17.77;9.40;;;;;;;12.66;77.00;100375.16;12205297;19;20031;-80
2022/04/30 17:01:37;;;;;;;14.98;10.05;;;;;;;12.48;78.15;100372.63;12184413;19;20027;-81
2022/04/30 17:05:39;;;;;;;15.00;10.02;;;;;;;12.51;79.06;100374.88;12205756;19;20006;-81
2022/04/30 17:09:41;;;;;;;17.08;9.23;;;;;;;12.58;77.76;100370.03;12210311;19;20007;-80
2022/04/30 17:13:44;;;;;;;13.35;10.38;;;;;;;12.47;78.08;100376.47;12179796;19;20018;-80
2022/04/30 17:17:46;;;;;;;17.75;9.63;;;;;;;12.27;78.38;100371.41;12211321;19;20026;-81
2022/04/30 17:21:48;;;;;;;15.73;9.43;;;;;;;12.05;79.15;100358.28;12202001;19;20010;-81
2022/04/30 17:25:50;;;;;;;17.20;9.98;;;;;;;11.82;79.57;100361.94;12187340;19;20473;-81
2022/04/30 17:29:52;;;;;;;17.92;9.82;;;;;;;11.68;81.02;100360.53;12203491;19;20022;-82
2022/04/30 17:38:14;;;;;;;17.98;10.10;;;;;;;11.40;82.44;100373.19;12205954;19;20017;-82
2022/04/30 17:42:17;;;;;;;17.23;9.95;;;;;;;11.32;82.26;100370.78;12204901;19;20042;-80
2022/04/30 17:46:24;;;;;;;16.15;9.68;;;;;;;11.18;84.59;100369.34;12179519;19;20014;-82
2022/04/30 17:50:27;;;;;;;;;;;;;;;11.03;84.78;100368.97;12206473;19;20041;-80
2022/04/30 17:54:30;;;;;;;12.52;8.85;;;;;;;10.95;83.97;100368.28;12197338;19;19922;-81
2022/04/30 17:58:33;;;;;;;21.08;11.52;;;;;;;10.89;84.18;100377.50;12175385;19;20011;-81
2022/04/30 18:02:36;;;;;;;15.17;10.30;;;;;;;10.85;86.05;100376.28;12204527;19;20381;-81
2022/04/30 18:06:39;;;;;;;18.52;10.70;;;;;;;10.85;86.87;100380.97;12200479;19;20018;-80
2022/04/30 18:10:41;;;;;;;13.90;9.80;;;;;;;10.81;87.49;100391.63;12181293;19;20030;-80
2022/04/30 18:14:44;;;;;;;17.50;10.70;;;;;;;10.82;88.02;100390.53;12191183;19;20074;-79
2022/04/30 18:18:46;;;;;;;17.65;10.75;;;;;;;10.71;88.55;100386.72;12197452;19;20674;-80
2022/04/30 18:22:49;;;;;;;21.77;10.87;;;;;;;10.64;89.12;100385.94;12179115;19;20070;-80
2022/04/30 18:26:51;;;;;;;18.95;10.57;;;;;;;10.61;89.16;100382.84;12200571;19;20736;-80
2022/04/30 18:30:52;;;;;;;16.50;11.43;;;;;;;10.52;89.16;100393.34;12184325;19;20019;-82
2022/04/30 18:34:54;;;;;;;14.13;10.45;;;;;;;10.44;89.32;100396.44;12197684;19;20013;-81
2022/04/30 18:38:56;;;;;;;17.15;10.38;;;;;;;10.40;89.08;100396.06;12210277;19;20371;-83
2022/04/30 18:42:58;;;;;;;19.05;10.00;;;;;;;10.40;90.14;100404.34;12188880;19;20061;-82
2022/04/30 18:47:00;;;;;;;20.25;10.07;;;;;;;10.32;89.87;100407.44;12197332;19;20010;-81
2022/04/30 18:51:02;;;;;;;20.88;10.50;;;;;;;10.21;90.29;100408.19;12202186;19;20018;-82
2022/04/30 19:03:47;;;;;;;18.30;9.43;;;;;;;10.14;89.88;100421.19;12245556;19;20052;-82
2022/04/30 19:07:52;;;;;;;35.85;17.08;;;;;;;10.14;90.83;100430.31;12226166;19;20007;-84
2022/04/30 19:11:55;;;;;;;21.13;10.93;;;;;;;10.11;91.39;100432.69;12251080;19;20006;-80
2022/04/30 19:15:57;;;;;;;19.42;10.63;;;;;;;10.12;92.57;100431.63;12197285;19;20472;-82
2022/04/30 19:19:59;;;;;;;16.33;10.05;;;;;;;10.10;92.88;100431.00;12210751;19;20424;-82
2022/04/30 19:24:02;;;;;;;15.70;10.10;;;;;;;10.06;93.28;100427.03;12227023;19;20071;-82